Time;durP1;ratioP1;P1;durP2;ratioP2;P2;SDS_P1;SDS_P2;PMS_P1;PMS_P2;Temp;Humidity;BMP_temperature;BMP_pressure;BME280_temperature;BME280_humidity;BME280_pressure;Samples;Min_cycle;Max_cycle;Signal;HPM_P1;HPM_P2
2021/05/31 00:01:58;;;;;;;5.43;3.10;;;;;;;14.58;51.69;96835.69;4982769;28;20265;-65
2021/05/31 00:04:23;;;;;;;3.17;2.97;;;;;;;14.50;50.23;96830.78;4996145;28;20336;-64
2021/05/31 00:07:01;;;;;;;2.83;2.47;;;;;;;14.46;50.43;96833.09;4995996;28;20547;-70
2021/05/31 00:09:26;;;;;;;2.77;2.57;;;;;;;14.54;51.34;96830.09;4996393;28;20205;-69
2021/05/31 00:11:52;;;;;;;5.77;3.13;;;;;;;14.63;51.24;96820.72;4995535;28;20526;-70
2021/05/31 00:14:17;;;;;;;2.80;2.60;;;;;;;14.66;51.79;96822.88;4996326;28;20189;-69
2021/05/31 00:16:43;;;;;;;3.07;2.77;;;;;;;14.70;51.55;96815.25;4994169;28;20185;-69
2021/05/31 00:19:09;;;;;;;2.90;2.60;;;;;;;14.63;51.44;96819.91;4996154;28;20185;-69
2021/05/31 00:21:35;;;;;;;3.33;2.93;;;;;;;14.51;51.42;96813.91;4993064;28;20181;-65
2021/05/31 00:24:01;;;;;;;3.60;3.10;;;;;;;14.62;50.48;96813.03;4995783;28;20495;-65
2021/05/31 00:26:26;;;;;;;3.70;3.40;;;;;;;14.66;51.25;96812.28;4995368;28;20465;-64
2021/05/31 00:28:51;;;;;;;3.47;3.27;;;;;;;14.52;52.03;96799.63;4995614;28;20170;-68
2021/05/31 00:31:17;;;;;;;4.70;4.27;;;;;;;14.59;51.32;96805.56;4996008;28;20617;-64
2021/05/31 00:33:44;;;;;;;2.97;2.77;;;;;;;14.48;50.49;96798.50;4994849;28;20193;-64
2021/05/31 00:36:10;;;;;;;3.00;2.80;;;;;;;14.47;51.47;96803.00;4985582;28;20186;-65
2021/05/31 00:38:35;;;;;;;3.10;2.90;;;;;;;14.50;51.56;96799.88;4994396;28;20913;-68
2021/05/31 00:41:03;;;;;;;3.20;2.73;;;;;;;14.46;51.47;96796.09;4995523;28;20416;-65
2021/05/31 00:43:33;;;;;;;3.20;2.90;;;;;;;14.43;51.55;96794.75;4994738;28;20228;-69
2021/05/31 00:46:03;;;;;;;3.57;3.27;;;;;;;14.37;51.69;96795.69;4995511;28;20547;-68
2021/05/31 00:48:29;;;;;;;3.50;3.00;;;;;;;14.33;52.37;96799.84;4994988;28;20798;-68
2021/05/31 00:50:59;;;;;;;2.80;2.60;;;;;;;14.36;53.05;96786.16;4995303;28;20425;-69
2021/05/31 00:53:25;;;;;;;3.03;2.83;;;;;;;14.35;53.26;96789.03;4994077;28;20201;-70
2021/05/31 00:55:51;;;;;;;3.70;3.30;;;;;;;14.31;52.99;96799.28;4995437;28;20507;-64
2021/05/31 00:58:16;;;;;;;8.07;2.73;;;;;;;14.26;53.15;96790.41;4994848;28;20428;-69
2021/05/31 01:00:46;;;;;;;3.60;2.30;;;;;;;14.14;53.93;96787.84;4995297;28;20260;-64
2021/05/31 01:03:12;;;;;;;3.30;3.00;;;;;;;14.06;54.55;96785.56;4994508;28;20730;-65
2021/05/31 01:05:39;;;;;;;2.70;2.50;;;;;;;14.05;54.30;96783.19;4987649;28;20464;-65
2021/05/31 01:08:09;;;;;;;3.00;2.70;;;;;;;14.12;54.43;96789.94;4992797;28;20185;-69
2021/05/31 01:10:46;;;;;;;2.73;2.53;;;;;;;13.91;54.22;96787.16;4994908;28;20416;-64
2021/05/31 01:13:35;;;;;;;3.83;2.70;;;;;;;13.97;54.85;96783.53;4994286;28;20456;-64
2021/05/31 01:16:27;;;;;;;3.43;3.13;;;;;;;14.04;55.07;96785.00;4994694;28;20405;-65
2021/05/31 01:18:56;;;;;;;2.70;2.50;;;;;;;13.95;53.71;96786.44;4964707;28;20424;-65
2021/05/31 01:21:49;;;;;;;2.60;2.37;;;;;;;13.92;54.16;96778.16;4991279;28;20420;-65
2021/05/31 01:24:24;;;;;;;2.60;2.50;;;;;;;13.89;54.28;96782.09;4994551;28;20421;-68
2021/05/31 01:27:20;;;;;;;3.20;2.50;;;;;;;13.53;52.88;96774.53;4994448;28;20547;-68
2021/05/31 01:30:07;;;;;;;2.40;2.20;;;;;;;13.69;53.92;96779.06;4994676;28;20431;-68
2021/05/31 01:32:38;;;;;;;2.13;2.03;;;;;;;13.77;54.02;96772.63;4994109;28;20774;-69
2021/05/31 01:35:07;;;;;;;2.40;2.20;;;;;;;13.77;52.74;96765.47;4988046;28;20422;-69
2021/05/31 01:37:35;;;;;;;2.40;2.30;;;;;;;13.71;53.57;96769.06;4990682;28;20427;-64
2021/05/31 01:40:05;;;;;;;3.00;2.80;;;;;;;13.84;53.45;96770.63;4994145;28;20903;-68
2021/05/31 01:42:31;;;;;;;3.27;2.50;;;;;;;13.83;53.25;96771.66;4993932;28;20428;-64
2021/05/31 01:44:58;;;;;;;3.03;2.70;;;;;;;13.81;53.03;96766.63;4994113;28;20421;-69
2021/05/31 01:47:24;;;;;;;3.07;2.23;;;;;;;13.88;53.69;96766.47;4992490;28;21054;-68
2021/05/31 01:49:51;;;;;;;3.93;2.60;;;;;;;13.86;53.26;96766.69;4994142;28;20492;-68
2021/05/31 01:52:17;;;;;;;3.70;2.73;;;;;;;13.88;53.38;96764.63;4993967;28;20507;-70
2021/05/31 01:54:43;;;;;;;3.10;2.90;;;;;;;13.85;52.83;96756.38;4993701;28;20519;-70
2021/05/31 01:57:10;;;;;;;3.37;2.20;;;;;;;13.96;52.23;96760.81;4994136;28;20887;-70
2021/05/31 01:59:36;;;;;;;2.80;2.17;;;;;;;13.90;51.98;96759.91;4993832;28;20486;-65
2021/05/31 02:02:03;;;;;;;2.93;2.60;;;;;;;13.97;52.59;96759.75;4990707;28;20520;-68
2021/05/31 02:04:28;;;;;;;3.00;2.70;;;;;;;14.00;51.77;96754.84;4990261;28;20559;-65
2021/05/31 02:06:54;;;;;;;2.97;2.30;;;;;;;14.00;52.12;96757.47;4994234;28;20966;-68
2021/05/31 02:09:20;;;;;;;2.90;2.27;;;;;;;14.00;52.26;96754.84;4993893;28;20173;-69
2021/05/31 02:11:59;;;;;;;3.90;2.83;;;;;;;13.96;52.10;96752.88;4993873;28;20260;-65
2021/05/31 02:14:48;;;;;;;2.93;2.70;;;;;;;13.95;51.65;96748.66;4993685;28;20520;-68
2021/05/31 02:17:28;;;;;;;3.93;2.53;;;;;;;13.89;51.95;96757.50;4994433;28;20404;-68
2021/05/31 02:19:58;;;;;;;2.80;2.30;;;;;;;13.96;52.63;96747.59;4970098;28;20521;-69
2021/05/31 02:22:24;;;;;;;3.40;3.10;;;;;;;14.00;51.94;96748.75;4974001;28;20955;-65
2021/05/31 02:24:52;;;;;;;4.40;2.53;;;;;;;14.00;52.28;96748.75;4993729;28;20435;-66
2021/05/31 02:27:18;;;;;;;2.90;2.63;;;;;;;14.03;51.77;96748.25;4993431;28;20484;-65
2021/05/31 02:29:44;;;;;;;2.50;2.30;;;;;;;14.02;52.43;96750.09;4993761;28;20904;-69
2021/05/31 02:32:09;;;;;;;2.80;2.70;;;;;;;14.09;52.81;96749.97;4993470;28;20490;-70
2021/05/31 02:34:35;;;;;;;4.03;2.60;;;;;;;14.06;51.95;96745.13;4993692;28;20236;-65
2021/05/31 02:37:01;;;;;;;4.37;2.93;;;;;;;14.03;52.06;96751.72;4994124;28;20169;-68
2021/05/31 02:39:26;;;;;;;3.30;2.50;;;;;;;13.97;51.67;96750.00;4992842;28;20177;-65
2021/05/31 02:41:52;;;;;;;3.73;2.60;;;;;;;13.98;52.23;96756.09;4993547;28;21244;-68
2021/05/31 02:44:17;;;;;;;3.37;2.30;;;;;;;13.90;51.08;96754.63;4993328;28;20205;-65
2021/05/31 02:46:43;;;;;;;2.43;2.23;;;;;;;13.88;52.44;96758.53;4993820;28;20207;-68
2021/05/31 02:49:09;;;;;;;3.97;2.37;;;;;;;13.92;52.33;96754.38;4993651;28;20173;-68
2021/05/31 02:51:35;;;;;;;4.03;3.60;;;;;;;13.89;52.98;96755.69;4993494;28;20937;-70
2021/05/31 02:54:03;;;;;;;3.23;2.37;;;;;;;13.88;51.99;96756.72;4992642;28;20483;-69
2021/05/31 02:56:28;;;;;;;4.17;2.20;;;;;;;13.84;52.20;96758.22;4993481;28;20181;-65
2021/05/31 02:58:53;;;;;;;3.60;2.40;;;;;;;13.84;52.01;96752.94;4993811;28;20409;-68
2021/05/31 03:01:19;;;;;;;2.30;2.10;;;;;;;13.90;53.15;96753.81;4993265;28;20174;-65
2021/05/31 03:03:44;;;;;;;3.30;2.50;;;;;;;13.87;52.72;96757.75;4993154;28;20189;-65
2021/05/31 03:06:10;;;;;;;2.70;2.60;;;;;;;13.88;52.08;96753.25;4993041;28;20289;-68
2021/05/31 03:08:35;;;;;;;3.40;2.20;;;;;;;13.90;53.03;96752.00;4991620;28;20232;-65
2021/05/31 03:11:01;;;;;;;2.87;2.60;;;;;;;13.85;52.90;96759.84;4992987;28;20213;-65
2021/05/31 03:13:26;;;;;;;7.80;2.27;;;;;;;13.79;52.66;96759.94;4992880;28;20201;-64
2021/05/31 03:15:53;;;;;;;3.00;2.80;;;;;;;13.72;52.88;96757.47;4993449;28;20667;-68
2021/05/31 03:18:19;;;;;;;2.97;2.67;;;;;;;13.71;53.02;96761.16;4993275;28;20176;-70
2021/05/31 03:20:44;;;;;;;3.33;2.47;;;;;;;13.64;52.80;96757.84;4993643;28;20787;-69
2021/05/31 03:23:09;;;;;;;3.50;3.00;;;;;;;13.67;53.39;96754.72;4982280;28;20205;-68
2021/05/31 03:25:35;;;;;;;3.10;2.63;;;;;;;13.70;53.93;96764.81;4973929;28;20186;-65
2021/05/31 03:28:00;;;;;;;2.90;2.37;;;;;;;13.71;54.29;96760.34;4986649;28;20616;-65
2021/05/31 03:30:26;;;;;;;2.97;2.77;;;;;;;13.61;53.97;96760.13;4993455;28;20628;-68
2021/05/31 03:32:52;;;;;;;2.50;2.27;;;;;;;13.63;53.82;96758.06;4992601;28;20640;-65
2021/05/31 03:35:18;;;;;;;2.30;2.17;;;;;;;13.55;53.93;96759.25;4996965;28;20219;-69
2021/05/31 03:37:44;;;;;;;2.47;2.27;;;;;;;13.53;54.80;96763.16;4995753;28;20177;-65
2021/05/31 03:40:10;;;;;;;2.53;2.33;;;;;;;13.54;54.25;96759.47;4996783;28;20177;-65
2021/05/31 03:42:36;;;;;;;5.57;2.87;;;;;;;13.54;55.31;96762.09;4996036;28;20425;-68
2021/05/31 03:45:03;;;;;;;2.63;2.50;;;;;;;13.44;55.15;96755.59;4996712;28;20550;-65
2021/05/31 03:47:29;;;;;;;2.67;2.47;;;;;;;13.43;56.05;96759.28;4996399;28;20205;-64
2021/05/31 03:49:55;;;;;;;2.63;2.40;;;;;;;13.38;54.69;96761.81;4996321;28;20907;-65
2021/05/31 03:52:20;;;;;;;3.27;3.03;;;;;;;13.41;55.08;96760.53;4988833;28;20201;-65
2021/05/31 03:54:46;;;;;;;2.53;2.33;;;;;;;13.49;55.05;96762.00;4979465;28;20217;-69
2021/05/31 03:57:11;;;;;;;3.10;2.80;;;;;;;13.45;54.94;96764.31;4996473;28;20176;-65
2021/05/31 03:59:37;;;;;;;3.10;2.90;;;;;;;13.39;56.05;96762.59;4996079;28;20412;-64
2021/05/31 04:02:03;;;;;;;2.90;2.70;;;;;;;13.42;55.70;96770.06;4995812;28;20180;-69
2021/05/31 04:04:38;;;;;;;3.50;2.70;;;;;;;13.42;56.07;96767.44;4995932;28;20201;-69
2021/05/31 04:12:31;;;;;;;3.53;2.80;;;;;;;13.37;56.20;96759.38;4996175;28;20432;-70
2021/05/31 04:14:57;;;;;;;2.80;2.53;;;;;;;13.30;56.61;96758.72;4995833;28;20416;-70
2021/05/31 04:17:22;;;;;;;3.13;2.63;;;;;;;13.32;56.80;96767.22;4995792;28;20531;-68
2021/05/31 04:19:47;;;;;;;3.00;2.80;;;;;;;13.33;56.25;96764.34;4995744;28;20169;-64
2021/05/31 04:22:13;;;;;;;3.17;2.87;;;;;;;13.31;56.73;96770.91;4995031;28;20654;-70
2021/05/31 04:24:38;;;;;;;3.03;2.80;;;;;;;13.34;57.10;96763.31;4995586;28;20244;-65
2021/05/31 04:27:04;;;;;;;3.17;2.87;;;;;;;13.38;56.77;96766.28;4995625;28;20620;-65
2021/05/31 04:29:29;;;;;;;3.17;2.90;;;;;;;13.43;56.41;96763.75;4995625;28;20731;-68
2021/05/31 04:31:55;;;;;;;3.87;3.50;;;;;;;13.46;56.58;96765.91;4995530;28;20694;-68
2021/05/31 04:34:20;;;;;;;3.00;2.57;;;;;;;13.50;57.46;96767.06;4995422;28;20205;-65
2021/05/31 04:36:45;;;;;;;3.07;2.77;;;;;;;13.45;57.13;96761.69;4994149;28;20177;-66
2021/05/31 04:39:11;;;;;;;2.83;2.63;;;;;;;13.48;57.92;96765.69;4991945;28;20185;-70
2021/05/31 04:41:37;;;;;;;3.90;3.60;;;;;;;13.55;57.68;96759.25;4994958;28;20540;-71
2021/05/31 04:44:03;;;;;;;3.30;3.00;;;;;;;13.59;57.86;96763.00;4994341;28;20197;-71
2021/05/31 04:46:29;;;;;;;3.00;2.80;;;;;;;13.58;57.95;96750.03;4995049;28;20455;-66
2021/05/31 04:48:54;;;;;;;3.63;3.10;;;;;;;13.58;58.36;96756.13;4995676;28;20907;-66
2021/05/31 04:51:21;;;;;;;3.47;3.17;;;;;;;13.66;58.42;96758.38;4994212;28;20636;-65
2021/05/31 04:53:46;;;;;;;3.77;3.20;;;;;;;13.70;58.59;96756.88;4994962;28;20193;-65
2021/05/31 04:56:13;;;;;;;3.70;3.40;;;;;;;13.79;58.83;96758.13;4995143;28;20466;-69
2021/05/31 04:58:39;;;;;;;7.40;3.90;;;;;;;13.88;59.45;96761.19;4995160;28;20220;-70
2021/05/31 05:01:05;;;;;;;3.60;3.30;;;;;;;13.81;58.68;96768.44;4995034;28;20425;-66
2021/05/31 05:03:30;;;;;;;3.47;3.20;;;;;;;13.87;58.98;96767.50;4994736;28;20197;-65
2021/05/31 05:05:55;;;;;;;4.00;3.60;;;;;;;13.87;58.30;96762.22;4993221;28;20611;-65
2021/05/31 05:08:21;;;;;;;3.60;3.30;;;;;;;13.92;59.19;96770.25;4994503;28;20205;-65
2021/05/31 05:10:47;;;;;;;3.80;3.50;;;;;;;14.03;59.34;96778.13;4995079;28;20170;-70
2021/05/31 05:13:12;;;;;;;4.00;3.70;;;;;;;14.13;59.16;96772.25;4977076;28;20200;-65
2021/05/31 05:15:39;;;;;;;3.57;3.27;;;;;;;14.16;58.78;96769.09;4994574;28;20181;-69
2021/05/31 05:18:05;;;;;;;6.00;3.30;;;;;;;14.10;58.85;96765.56;4994882;28;20245;-70
2021/05/31 05:20:32;;;;;;;4.00;3.70;;;;;;;14.15;59.15;96762.22;4976618;28;20416;-67
2021/05/31 05:22:58;;;;;;;4.00;3.70;;;;;;;14.26;58.88;96763.97;4994442;28;20436;-69
2021/05/31 05:25:24;;;;;;;4.70;4.30;;;;;;;14.34;58.40;96768.94;4994603;28;20472;-70
2021/05/31 05:27:50;;;;;;;4.03;3.70;;;;;;;14.24;58.55;96769.50;4994564;28;20548;-69
2021/05/31 05:30:18;;;;;;;4.20;3.83;;;;;;;14.29;57.08;96771.50;4994362;28;20421;-66
2021/05/31 05:32:49;;;;;;;3.90;3.60;;;;;;;14.44;57.92;96771.72;4994120;28;20441;-69
2021/05/31 05:48:30;;;;;;;3.50;3.30;;;;;;;14.32;54.81;96765.72;4993973;28;20752;-66
2021/05/31 05:51:05;;;;;;;4.90;4.50;;;;;;;14.54;56.04;96771.09;4992414;28;20512;-69
2021/05/31 05:53:32;;;;;;;4.50;4.10;;;;;;;14.72;56.67;96770.84;4971944;28;20284;-66
2021/05/31 05:55:58;;;;;;;3.67;3.37;;;;;;;14.81;57.90;96769.41;4993872;28;20455;-70
2021/05/31 05:58:27;;;;;;;3.80;3.50;;;;;;;14.61;55.50;96766.44;4994071;28;20412;-69
2021/05/31 06:00:53;;;;;;;4.07;3.67;;;;;;;14.83;56.11;96775.25;4993960;28;20497;-70
2021/05/31 06:03:19;;;;;;;4.00;3.50;;;;;;;14.92;57.57;96768.53;4993749;28;20425;-70
2021/05/31 06:05:44;;;;;;;4.47;3.60;;;;;;;14.91;56.71;96769.56;4993569;28;20185;-69
2021/05/31 06:08:09;;;;;;;4.60;4.20;;;;;;;15.00;56.29;96771.53;4993451;28;20560;-70
2021/05/31 06:10:35;;;;;;;3.80;3.50;;;;;;;15.14;57.53;96779.97;4994147;28;20289;-71
2021/05/31 06:13:00;;;;;;;4.20;3.80;;;;;;;15.21;57.66;96783.22;4993706;28;20232;-70
2021/05/31 06:15:25;;;;;;;4.03;3.73;;;;;;;15.31;57.36;96778.88;4992859;28;20644;-66
2021/05/31 06:17:51;;;;;;;4.00;3.70;;;;;;;15.37;57.49;96779.75;4993899;28;20170;-66
2021/05/31 06:20:16;;;;;;;4.70;3.70;;;;;;;15.22;56.87;96782.19;4993595;28;20177;-69
2021/05/31 06:22:41;;;;;;;3.30;3.10;;;;;;;15.27;56.91;96784.91;4993688;28;20256;-69
2021/05/31 06:25:09;;;;;;;3.60;3.30;;;;;;;15.39;55.92;96785.59;4993342;28;20231;-65
2021/05/31 06:27:35;;;;;;;3.83;3.50;;;;;;;15.50;55.26;96783.91;4993720;28;20606;-65
2021/05/31 06:30:01;;;;;;;4.63;3.77;;;;;;;15.62;55.37;96789.91;4989766;28;20424;-69
2021/05/31 06:32:26;;;;;;;4.03;3.20;;;;;;;15.75;55.69;96794.81;4993457;28;20181;-70
2021/05/31 06:34:51;;;;;;;4.37;4.00;;;;;;;15.75;55.38;96784.22;4982641;28;20236;-71
2021/05/31 06:37:17;;;;;;;3.73;3.50;;;;;;;15.79;55.40;96780.84;4974423;28;20174;-65
2021/05/31 06:39:42;;;;;;;4.20;3.50;;;;;;;15.87;55.20;96782.25;4983109;28;20181;-65
2021/05/31 06:42:09;;;;;;;3.77;3.37;;;;;;;15.99;55.55;96778.41;4993746;28;20232;-66
2021/05/31 06:44:34;;;;;;;4.70;3.67;;;;;;;16.08;54.87;96776.91;4985698;28;20209;-71
2021/05/31 06:47:00;;;;;;;3.27;2.97;;;;;;;16.04;54.28;96775.81;4992346;28;20544;-71
2021/05/31 06:49:26;;;;;;;3.00;2.80;;;;;;;16.01;51.13;96778.16;4974470;28;20201;-66
2021/05/31 06:51:51;;;;;;;3.07;2.87;;;;;;;15.91;50.15;96770.06;4974191;28;20170;-65
2021/05/31 06:54:16;;;;;;;2.60;2.40;;;;;;;16.03;50.79;96771.53;4974236;28;20434;-65
2021/05/31 06:56:42;;;;;;;3.33;2.83;;;;;;;16.06;51.06;96771.06;4975776;28;20178;-65
2021/05/31 06:59:07;;;;;;;3.10;2.63;;;;;;;16.11;51.32;96767.66;4980257;28;20269;-66
2021/05/31 07:01:33;;;;;;;3.73;2.63;;;;;;;16.07;52.01;96767.34;4991317;28;20256;-72
2021/05/31 07:03:58;;;;;;;4.63;2.80;;;;;;;16.21;50.42;96763.25;4993233;28;20239;-67
2021/05/31 07:06:24;;;;;;;3.10;2.90;;;;;;;16.18;51.48;96758.44;4992831;28;20240;-71
2021/05/31 07:08:49;;;;;;;3.13;2.90;;;;;;;16.37;51.05;96766.84;4991868;28;20206;-72
2021/05/31 07:11:17;;;;;;;3.60;3.30;;;;;;;16.55;50.62;96757.75;4988947;28;20196;-73
2021/05/31 07:13:45;;;;;;;3.60;2.77;;;;;;;16.67;49.88;96769.00;4983973;28;20683;-71
2021/05/31 07:16:14;;;;;;;3.23;2.87;;;;;;;16.74;49.06;96766.94;4978762;28;20437;-73
2021/05/31 07:18:40;;;;;;;3.13;2.93;;;;;;;16.84;49.31;96769.66;4988964;28;20907;-72
2021/05/31 07:21:05;;;;;;;3.27;3.00;;;;;;;16.81;47.96;96767.50;4977685;28;20468;-74
2021/05/31 07:23:31;;;;;;;3.53;3.23;;;;;;;16.88;48.20;96760.94;4990087;28;20725;-71
2021/05/31 07:25:56;;;;;;;3.33;3.03;;;;;;;17.05;47.82;96761.56;4991014;28;20726;-75
2021/05/31 07:28:22;;;;;;;5.57;3.00;;;;;;;17.06;47.43;96767.69;4985266;28;20189;-70
2021/05/31 07:30:47;;;;;;;3.17;2.50;;;;;;;17.13;47.62;96768.25;4964932;28;20178;-73
2021/05/31 07:33:14;;;;;;;3.20;3.00;;;;;;;16.86;47.23;96762.22;4988709;28;20204;-74
2021/05/31 07:35:41;;;;;;;3.20;2.90;;;;;;;17.05;46.16;96760.75;4980806;28;20637;-71
2021/05/31 07:38:07;;;;;;;4.50;3.20;;;;;;;17.15;45.41;96758.16;4988445;28;20828;-75
2021/05/31 07:40:32;;;;;;;3.70;3.07;;;;;;;17.27;45.58;96764.06;4987141;28;20429;-73
2021/05/31 07:42:58;;;;;;;3.13;2.83;;;;;;;17.20;47.11;96769.63;4987610;28;20197;-72
2021/05/31 07:45:24;;;;;;;2.63;2.53;;;;;;;17.18;45.70;96771.75;4988677;28;20178;-73
2021/05/31 07:47:49;;;;;;;3.10;2.50;;;;;;;17.12;45.26;96771.97;4980088;28;20194;-74
2021/05/31 07:50:16;;;;;;;2.90;2.70;;;;;;;17.38;44.48;96763.88;4979803;28;20990;-75
2021/05/31 07:52:42;;;;;;;2.43;2.23;;;;;;;17.62;44.07;96763.47;4984288;28;20186;-73
2021/05/31 07:55:13;;;;;;;3.50;2.43;;;;;;;17.62;44.58;96764.28;4979654;28;20420;-72
2021/05/31 07:57:41;;;;;;;2.47;2.27;;;;;;;17.48;44.16;96763.16;4996347;28;20640;-73
2021/05/31 08:00:10;;;;;;;3.00;2.27;;;;;;;17.00;44.82;96761.53;4978744;28;20426;-73
2021/05/31 08:02:37;;;;;;;2.53;2.33;;;;;;;17.37;43.02;96761.50;4981838;28;20789;-74
2021/05/31 08:05:03;;;;;;;2.60;2.40;;;;;;;17.58;41.75;96757.06;4993885;28;20428;-72
2021/05/31 08:07:28;;;;;;;3.10;2.70;;;;;;;17.57;40.85;96752.84;4994457;28;20618;-71
2021/05/31 08:09:54;;;;;;;3.57;2.60;;;;;;;17.90;40.20;96753.19;4994853;28;20507;-73
2021/05/31 08:12:19;;;;;;;2.40;2.20;;;;;;;18.10;40.75;96753.25;4984832;28;20218;-70
2021/05/31 08:14:45;;;;;;;2.73;2.53;;;;;;;18.31;40.25;96756.75;4995528;28;20554;-72
2021/05/31 08:17:10;;;;;;;2.20;2.00;;;;;;;18.34;38.55;96754.38;4983427;28;20621;-73
2021/05/31 08:19:36;;;;;;;2.50;2.30;;;;;;;18.31;38.77;96752.25;4976734;28;20190;-72
2021/05/31 08:22:02;;;;;;;2.70;2.40;;;;;;;18.39;37.73;96746.38;4976520;28;20190;-73
2021/05/31 08:24:28;;;;;;;2.40;2.20;;;;;;;18.09;40.21;96748.19;4993382;28;20280;-72
2021/05/31 08:26:53;;;;;;;2.67;2.47;;;;;;;18.20;40.04;96749.81;4983593;28;20592;-72
2021/05/31 08:29:21;;;;;;;2.23;2.13;;;;;;;18.36;39.26;96749.59;4982815;28;20242;-72
2021/05/31 08:31:47;;;;;;;2.80;2.60;;;;;;;18.39;37.85;96745.56;4979819;28;20177;-72
2021/05/31 08:34:13;;;;;;;2.23;2.13;;;;;;;18.53;38.02;96749.38;4992810;28;20490;-75
2021/05/31 08:36:39;;;;;;;2.20;2.10;;;;;;;18.72;38.23;96753.06;4995827;28;20409;-72
2021/05/31 08:39:06;;;;;;;3.70;2.70;;;;;;;18.84;37.53;96750.94;4994094;28;20847;-73
2021/05/31 08:41:34;;;;;;;2.63;2.43;;;;;;;18.87;39.55;96752.28;4994498;28;20186;-72
2021/05/31 08:43:59;;;;;;;2.93;2.60;;;;;;;18.86;37.61;96753.34;4986694;28;20449;-73
2021/05/31 08:46:24;;;;;;;2.27;2.07;;;;;;;19.07;37.17;96754.91;4987531;28;20464;-73
2021/05/31 08:48:51;;;;;;;2.53;2.33;;;;;;;18.94;35.40;96752.78;4976092;28;20205;-69
2021/05/31 08:51:19;;;;;;;4.93;2.27;;;;;;;18.89;35.75;96745.63;4973230;28;20179;-72
2021/05/31 08:53:44;;;;;;;2.77;2.50;;;;;;;19.20;36.60;96739.16;4973196;28;20478;-69
2021/05/31 08:56:10;;;;;;;2.40;2.20;;;;;;;19.26;36.86;96735.41;4976975;28;20451;-70
2021/05/31 08:58:36;;;;;;;2.53;2.17;;;;;;;19.44;37.10;96748.19;4991306;28;20185;-71
2021/05/31 09:01:03;;;;;;;2.40;2.30;;;;;;;19.58;36.93;96740.41;4990257;28;20205;-71
2021/05/31 09:03:28;;;;;;;2.53;2.33;;;;;;;19.55;37.19;96740.94;4962488;28;20208;-72
2021/05/31 09:06:02;;;;;;;2.50;2.30;;;;;;;19.47;35.59;96746.84;4985388;28;20480;-72
2021/05/31 09:08:28;;;;;;;2.63;2.30;;;;;;;19.72;36.61;96748.59;4991737;28;20197;-70
2021/05/31 09:11:02;;;;;;;2.73;2.47;;;;;;;19.90;36.07;96739.97;4989908;28;20416;-73
2021/05/31 09:13:40;;;;;;;2.83;2.43;;;;;;;19.69;35.53;96738.50;4973940;28;20456;-73
2021/05/31 09:16:17;;;;;;;2.03;1.93;;;;;;;19.93;34.46;96747.44;4957237;28;20432;-73
2021/05/31 09:18:57;;;;;;;2.57;2.37;;;;;;;19.82;34.08;96736.00;4989716;28;20424;-76
2021/05/31 09:21:27;;;;;;;2.90;2.50;;;;;;;19.85;37.33;96748.81;4986064;28;20428;-72
2021/05/31 09:23:58;;;;;;;2.20;2.00;;;;;;;19.96;34.52;96739.69;4994698;28;20460;-73
2021/05/31 09:26:24;;;;;;;4.57;2.20;;;;;;;19.99;36.78;96739.13;4994994;28;20955;-72
2021/05/31 09:28:57;;;;;;;2.60;2.40;;;;;;;20.22;35.22;96737.69;4994858;28;20491;-79
2021/05/31 09:31:24;;;;;;;2.30;2.20;;;;;;;20.15;38.28;96739.81;4994655;28;20185;-72
2021/05/31 09:34:13;;;;;;;2.03;1.93;;;;;;;20.15;35.62;96745.16;4994609;28;20931;-78
2021/05/31 09:36:58;;;;;;;2.33;2.17;;;;;;;20.26;35.29;96736.88;4985497;28;20807;-80
2021/05/31 09:39:40;;;;;;;2.80;2.60;;;;;;;20.25;35.86;96731.81;4994424;28;20499;-73
2021/05/31 09:42:13;;;;;;;2.20;2.10;;;;;;;20.22;37.97;96727.81;4975088;28;20475;-79
2021/05/31 09:44:43;;;;;;;2.50;2.30;;;;;;;20.62;34.76;96723.25;4975076;28;20777;-78
2021/05/31 09:47:08;;;;;;;2.43;2.23;;;;;;;20.62;36.12;96724.03;4957574;28;20464;-72
2021/05/31 09:49:38;;;;;;;2.87;2.67;;;;;;;20.76;35.70;96724.19;4975057;28;20418;-72
2021/05/31 09:52:08;;;;;;;2.60;2.40;;;;;;;20.87;35.26;96720.34;4974828;28;20785;-80
2021/05/31 09:54:48;;;;;;;2.70;2.50;;;;;;;20.71;36.65;96717.00;4977077;28;20449;-76
2021/05/31 09:57:28;;;;;;;6.57;2.73;;;;;;;20.83;36.07;96728.13;4957620;28;20511;-72
2021/05/31 10:00:00;;;;;;;2.90;2.70;;;;;;;21.21;35.09;96726.44;4974641;28;20468;-80
2021/05/31 10:10:23;;;;;;;2.90;2.70;;;;;;;21.42;34.03;96717.91;4977582;28;20452;-80
2021/05/31 10:12:49;;;;;;;2.80;2.60;;;;;;;21.39;35.69;96721.19;4974346;28;20932;-80
2021/05/31 10:15:18;;;;;;;2.63;2.43;;;;;;;21.31;35.29;96721.78;4974664;28;20197;-79
2021/05/31 10:17:45;;;;;;;2.70;2.50;;;;;;;21.29;34.37;96718.59;4974568;28;20782;-72
2021/05/31 10:20:11;;;;;;;2.43;2.33;;;;;;;21.57;35.84;96710.78;4974595;28;20410;-72
2021/05/31 10:22:37;;;;;;;2.77;2.53;;;;;;;21.75;34.21;96718.06;4974149;28;20441;-72
2021/05/31 10:25:06;;;;;;;4.50;2.47;;;;;;;21.86;34.82;96711.50;4985136;28;20173;-74
2021/05/31 10:27:34;;;;;;;2.30;2.20;;;;;;;21.94;33.14;96710.88;4993883;28;20456;-80
2021/05/31 10:30:01;;;;;;;2.83;2.50;;;;;;;21.94;33.90;96706.31;4994055;28;20409;-71
2021/05/31 10:32:27;;;;;;;3.13;2.80;;;;;;;21.92;35.33;96711.16;4993531;28;20466;-72
2021/05/31 10:34:53;;;;;;;4.03;2.30;;;;;;;22.13;33.75;96703.63;4994142;28;20484;-80
2021/05/31 10:37:29;;;;;;;2.77;2.57;;;;;;;22.24;34.71;96702.41;4993786;28;20181;-71
2021/05/31 10:40:11;;;;;;;3.20;2.43;;;;;;;22.17;35.15;96701.97;4987820;28;20417;-80
2021/05/31 10:42:52;;;;;;;2.97;2.40;;;;;;;22.24;33.33;96708.56;4978621;28;20428;-71
2021/05/31 10:45:24;;;;;;;2.23;2.07;;;;;;;22.34;32.83;96697.69;4997769;28;20408;-72
2021/05/31 10:47:55;;;;;;;2.37;2.17;;;;;;;22.49;30.09;96700.13;4997672;28;20448;-71
2021/05/31 10:50:36;;;;;;;2.77;2.30;;;;;;;22.50;31.15;96703.63;4997834;28;20966;-72
2021/05/31 10:53:07;;;;;;;2.23;2.13;;;;;;;22.45;31.33;96704.47;4997261;28;20519;-72
2021/05/31 10:55:32;;;;;;;2.73;2.53;;;;;;;22.49;30.76;96705.50;4982968;28;20429;-80
2021/05/31 10:57:59;;;;;;;2.40;2.30;;;;;;;22.64;32.98;96695.63;4978224;28;20752;-80
2021/05/31 11:00:30;;;;;;;2.87;2.50;;;;;;;22.72;31.77;96695.75;4978104;28;20178;-72
2021/05/31 11:03:04;;;;;;;2.47;2.33;;;;;;;22.63;31.42;96699.41;4977611;28;20429;-80
2021/05/31 11:05:33;;;;;;;2.30;2.20;;;;;;;22.55;31.36;96695.53;4977872;28;20460;-73
2021/05/31 11:07:58;;;;;;;2.70;2.40;;;;;;;22.83;31.17;96697.16;4978366;28;20457;-80
2021/05/31 11:10:29;;;;;;;3.10;2.80;;;;;;;22.69;33.05;96696.34;4992801;28;20420;-72
2021/05/31 11:12:54;;;;;;;2.60;2.50;;;;;;;22.84;33.59;96701.44;4997056;28;20331;-72
2021/05/31 11:15:20;;;;;;;3.87;2.70;;;;;;;22.88;32.37;96707.78;4997435;28;20496;-79
2021/05/31 11:17:51;;;;;;;2.20;2.00;;;;;;;22.94;33.56;96693.22;4997521;28;20247;-79
2021/05/31 11:20:19;;;;;;;2.67;2.50;;;;;;;22.89;30.62;96697.88;4997271;28;20636;-80
2021/05/31 11:23:11;;;;;;;3.50;2.23;;;;;;;23.06;31.46;96703.47;4985595;28;20536;-72
2021/05/31 11:25:36;;;;;;;2.60;2.40;;;;;;;23.22;34.21;96699.41;4991544;28;20436;-79
2021/05/31 11:28:04;;;;;;;3.93;1.93;;;;;;;23.14;32.68;96700.88;4997208;28;20452;-80
2021/05/31 11:30:35;;;;;;;2.57;2.40;;;;;;;23.40;32.84;96699.34;4997035;28;20177;-81
2021/05/31 11:33:03;;;;;;;2.27;2.17;;;;;;;23.36;31.17;96701.03;4996438;28;20432;-72
2021/05/31 11:35:30;;;;;;;2.53;2.33;;;;;;;23.57;30.64;96696.03;4997096;28;20492;-80
2021/05/31 11:37:58;;;;;;;2.90;2.70;;;;;;;23.65;33.68;96695.34;4996875;28;20401;-80
2021/05/31 11:40:34;;;;;;;2.40;2.20;;;;;;;23.63;31.23;96691.38;4978684;28;20430;-80
2021/05/31 11:43:02;;;;;;;2.57;2.37;;;;;;;23.80;31.39;96692.34;4959432;28;20808;-79
2021/05/31 11:45:33;;;;;;;2.53;2.40;;;;;;;23.93;28.58;96696.09;4977377;28;20413;-72
2021/05/31 11:48:04;;;;;;;2.80;2.60;;;;;;;23.95;31.18;96694.69;4977468;28;20458;-80
2021/05/31 11:50:33;;;;;;;2.57;2.47;;;;;;;24.15;29.67;96693.50;4977579;28;20408;-80
2021/05/31 11:52:59;;;;;;;3.27;2.30;;;;;;;23.98;31.01;96691.41;4988970;28;20452;-81
2021/05/31 11:55:26;;;;;;;2.57;2.37;;;;;;;23.94;29.87;96695.00;4995182;28;20745;-72
2021/05/31 11:57:52;;;;;;;2.67;2.50;;;;;;;24.01;31.67;96681.97;4996393;28;20511;-80
2021/05/31 12:00:39;;;;;;;2.80;2.60;;;;;;;24.30;30.05;96685.88;4977660;28;20527;-73
2021/05/31 12:03:05;;;;;;;2.57;2.40;;;;;;;24.42;31.85;96683.41;4977566;28;20198;-76
2021/05/31 12:05:34;;;;;;;3.07;2.53;;;;;;;24.48;29.44;96676.84;4976769;28;20517;-68